Nevada, Minnesota
Current Conditions -  °F | °C
As of 12:35 PM on Thursday 29 Jan 2015 (Local Time) from KAUM Reporting Station
Overcast Overcast  
Wind Chill: 16°   Ceiling: 1900
Heat Index: 30°   Visibility: 10mi
Dew Point: 25°   Wind: 24mph
Humidity: 80%   Direction: 320°NW
Pressure: 30.2"   Gusts: 35mph
Location:  43.5433°N, 92.9289°W
Report Text: KAUM 291835Z AUTO 32021G30KT 10SM BKN019 OVC024 M01/M04 A3020 RMK AO2
Loading
Personal Weather Stations






























Interactive Weather Map New forecast layout! Learn more

10-Day Weather Forecast

Advertisements
Track Severe Weather on mobile